CYRC weather

Chicoutimi St Honoré Airport
Chicoutimi, Quebec, Canada

Public forecast

Using degrees Celsius for public forecast. Weather courtesy of forecast.io.

Closest aviation weather report (METAR) to Chicoutimi St Honoré Airport

Closest report is CFB Bagotville, 11.6 nm (21.5 km) S. Retrieved 2020/01/21 07:00 UTC (46 minutes ago):

CYBG 210700Z 27006KT 15SM -SN OVC030 M17/M20 A3025 RMK SC8 PCPN VRY LGT SLP260

Closest aviation forecast (TAF) to Chicoutimi St Honoré Airport

Closest forecast is CFB Bagotville, 11.6 nm (21.5 km) S. Retrieved 2020/01/21 06:33 UTC (1 hour ago):

TAF TAF CYBG 210530Z 2106/2206 26005KT P6SM BKN030 TEMPO 2106/2110 P6SM -SN FM211000 28005KT P6SM SCT030 FM211400 VRB03KT P6SM FEW030 BKN080 FM212000 VRB03KT P6SM -SN OVC030 TEMPO 2120/2204 2SM -SHSN OVC020 FM220400 VRB03KT P6SM OVC030 TEMPO 2204/2206 4SM -SHSN RMK NXT FCST BY 211200Z